createdAt,value
2017-10-15T09:45:24.741Z,9.53
2017-10-15T09:50:11.516Z,9.43
2017-10-15T09:54:58.327Z,9.50
2017-10-15T09:59:44.929Z,7.90
2017-10-15T10:04:32.485Z,7.73
2017-10-15T10:09:20.048Z,8.50
2017-10-15T10:14:08.157Z,8.03
2017-10-15T10:19:02.316Z,8.93
2017-10-15T10:23:49.469Z,8.60
2017-10-15T10:28:36.406Z,8.83
2017-10-15T10:33:23.262Z,7.60
2017-10-15T10:38:10.303Z,8.53
2017-10-15T10:42:57.482Z,8.67
2017-10-15T10:47:44.629Z,6.80
2017-10-15T10:52:31.353Z,6.30
2017-10-15T10:57:18.609Z,6.70
2017-10-15T11:02:05.186Z,6.63
2017-10-15T11:06:51.782Z,7.53
2017-10-15T11:11:38.412Z,6.60
2017-10-15T11:16:25.493Z,6.83
2017-10-15T11:21:13.065Z,6.23
2017-10-15T11:25:59.640Z,5.83
2017-10-15T11:30:46.613Z,5.70
2017-10-15T11:35:33.941Z,5.40
2017-10-15T11:40:20.930Z,5.20
2017-10-15T11:45:07.565Z,4.57
2017-10-15T11:49:55.334Z,4.47
2017-10-15T11:54:42.060Z,4.57
2017-10-15T11:59:28.709Z,4.10
2017-10-15T12:04:15.692Z,4.03
2017-10-15T12:09:03.020Z,4.03
2017-10-15T12:13:50.459Z,4.20
2017-10-15T12:18:37.064Z,16.83
2017-10-15T12:23:23.624Z,3.97
2017-10-15T12:28:10.377Z,3.50
2017-10-15T12:32:57.280Z,3.43
2017-10-15T12:37:43.880Z,4.10
2017-10-15T12:42:30.680Z,4.10
2017-10-15T12:47:17.268Z,4.10
2017-10-15T12:52:04.033Z,4.97
2017-10-15T12:56:51.697Z,2.97
2017-10-15T13:01:38.328Z,2.80
2017-10-15T13:06:24.937Z,3.40
2017-10-15T13:11:11.559Z,2.63
2017-10-15T13:15:58.502Z,2.80
2017-10-15T13:20:45.157Z,2.93
2017-10-15T13:25:31.926Z,2.97
2017-10-15T13:30:18.924Z,2.87
2017-10-15T13:35:05.668Z,2.80
2017-10-15T13:39:52.993Z,3.40
2017-10-15T13:44:40.683Z,3.50
2017-10-15T13:49:27.281Z,3.90
2017-10-15T13:54:13.897Z,4.20
2017-10-15T13:59:00.992Z,3.60
2017-10-15T14:03:47.593Z,3.53
2017-10-15T14:08:34.585Z,3.50
2017-10-15T14:13:21.136Z,3.60
2017-10-15T14:18:07.790Z,3.83
2017-10-15T14:22:55.117Z,3.63
2017-10-15T14:27:41.688Z,2.90
2017-10-15T14:32:28.665Z,3.80
2017-10-15T14:37:15.542Z,3.43
2017-10-15T14:42:02.510Z,2.90
2017-10-15T14:46:49.409Z,3.17
2017-10-15T14:51:36.354Z,3.23
2017-10-15T14:56:23.228Z,3.30
2017-10-15T15:01:10.124Z,3.50
2017-10-15T15:05:57.048Z,3.43
2017-10-15T15:10:43.768Z,4.00
2017-10-15T15:15:30.753Z,3.67
2017-10-15T15:20:17.853Z,4.57
2017-10-15T15:25:05.801Z,4.30
2017-10-15T15:29:53.605Z,5.00
2017-10-15T15:34:40.269Z,5.30
2017-10-15T15:39:27.518Z,5.73
2017-10-15T15:44:15.109Z,5.73
2017-10-15T15:49:01.969Z,6.53
2017-10-15T15:53:49.287Z,5.63
2017-10-15T15:58:36.271Z,6.33
2017-10-15T16:03:23.260Z,5.20
2017-10-15T16:08:09.877Z,5.80
2017-10-15T16:12:57.257Z,6.93
2017-10-15T16:17:43.861Z,6.60
2017-10-15T16:22:30.433Z,8.33
2017-10-15T16:27:17.866Z,6.60
2017-10-15T16:32:04.481Z,6.13
2017-10-15T16:36:51.089Z,5.90
2017-10-15T16:41:37.700Z,7.40
2017-10-15T16:46:24.484Z,6.40
2017-10-15T16:51:11.309Z,6.97
2017-10-15T16:55:58.403Z,6.80
2017-10-15T17:00:45.472Z,7.53
2017-10-15T17:05:33.007Z,7.93
2017-10-15T17:10:20.368Z,7.10
2017-10-15T17:15:07.007Z,8.23
2017-10-15T17:19:53.620Z,7.57
2017-10-15T17:24:40.313Z,8.17
2017-10-15T17:29:27.678Z,8.73
2017-10-15T17:34:14.342Z,8.13
2017-10-15T17:39:01.031Z,8.77
2017-10-15T17:43:47.727Z,8.30
2017-10-15T17:48:35.130Z,8.27
2017-10-15T17:53:21.808Z,8.87
2017-10-15T17:58:08.530Z,8.33
2017-10-15T18:02:55.184Z,8.00
2017-10-15T18:07:42.033Z,8.60
2017-10-15T18:12:28.757Z,8.67
2017-10-15T18:17:15.464Z,8.90
2017-10-15T18:22:02.169Z,10.43
2017-10-15T18:26:48.861Z,11.33
2017-10-15T18:31:35.939Z,10.10
2017-10-15T18:36:22.639Z,9.40
2017-10-15T18:41:09.367Z,10.10
2017-10-15T18:45:56.067Z,11.27
2017-10-15T18:50:42.783Z,11.50
2017-10-15T18:55:29.569Z,10.10
2017-10-15T19:00:16.310Z,10.87
2017-10-15T19:05:03.999Z,11.27
2017-10-15T19:09:50.731Z,10.40
2017-10-15T19:14:37.459Z,10.50
2017-10-15T19:19:24.692Z,11.80
2017-10-15T19:24:11.524Z,11.10
2017-10-15T19:28:58.366Z,10.10
2017-10-15T19:33:45.830Z,17.50
2017-10-15T19:38:32.538Z,9.00
2017-10-15T19:43:20.016Z,9.30
2017-10-15T19:48:06.783Z,11.30
2017-10-15T19:52:53.490Z,9.90
2017-10-15T19:57:40.202Z,9.77
2017-10-15T20:02:26.902Z,10.53
2017-10-15T20:07:13.557Z,10.67
2017-10-15T20:12:02.359Z,11.07
2017-10-15T20:16:49.924Z,10.13
2017-10-15T20:21:36.517Z,11.07
2017-10-15T20:26:23.887Z,10.33
2017-10-15T20:31:10.625Z,10.47
2017-10-15T20:35:57.325Z,10.70
2017-10-15T20:40:43.913Z,12.13
2017-10-15T20:45:31.299Z,11.90
2017-10-15T20:50:18.208Z,10.60
2017-10-15T20:55:04.841Z,9.07
2017-10-15T20:59:51.644Z,8.03
2017-10-15T21:04:38.245Z,10.57
2017-10-15T21:09:25.693Z,11.07
2017-10-15T21:14:13.018Z,11.40
2017-10-15T21:18:59.698Z,12.27
2017-10-15T21:23:46.272Z,12.43
2017-10-15T21:28:33.682Z,11.60
2017-10-15T21:33:20.364Z,13.10
2017-10-15T21:38:06.949Z,13.53
2017-10-15T21:42:54.256Z,13.10
2017-10-15T21:47:40.870Z,12.40
2017-10-15T21:52:27.445Z,13.80
2017-10-15T21:57:13.973Z,11.70
2017-10-15T22:02:00.593Z,10.60
2017-10-15T22:06:47.508Z,12.10
2017-10-15T22:11:34.054Z,10.90
2017-10-15T22:16:20.638Z,11.00
2017-10-15T22:21:13.273Z,11.93
2017-10-15T22:25:59.850Z,10.63
2017-10-15T22:30:46.454Z,11.50
2017-10-15T22:35:32.999Z,9.77
2017-10-15T22:40:19.560Z,9.87
2017-10-15T22:45:06.888Z,9.57
2017-10-15T22:49:53.456Z,10.77
2017-10-15T22:54:40.121Z,12.67
2017-10-15T22:59:26.743Z,10.80
2017-10-15T23:04:13.826Z,13.33
2017-10-15T23:09:01.184Z,9.50
2017-10-15T23:13:47.757Z,9.57
2017-10-15T23:18:35.064Z,9.70
2017-10-15T23:23:21.651Z,8.60
2017-10-15T23:28:08.216Z,8.40
2017-10-15T23:32:55.539Z,9.07
2017-10-15T23:37:42.181Z,8.83
2017-10-15T23:42:29.489Z,9.40
2017-10-15T23:47:16.049Z,8.50
2017-10-15T23:52:02.633Z,10.17
2017-10-15T23:56:49.507Z,8.60
